createdAt,value
2023-11-05T00:00:27.709Z,1.30
2023-11-05T00:01:28.050Z,1.70
2023-11-05T00:02:28.327Z,1.40
2023-11-05T00:03:28.653Z,1.20
2023-11-05T00:04:29.040Z,1.50
2023-11-05T00:05:29.209Z,1.20
2023-11-05T00:06:29.490Z,1.50
2023-11-05T00:07:29.826Z,1.40
2023-11-05T00:08:30.064Z,1.40
2023-11-05T00:09:30.361Z,1.30
2023-11-05T00:10:30.736Z,1.50
2023-11-05T00:11:30.940Z,1.20
2023-11-05T00:12:31.292Z,1.40
2023-11-05T00:13:31.643Z,1.00
2023-11-05T00:14:31.926Z,1.10
2023-11-05T00:15:32.415Z,1.40
2023-11-05T00:16:32.682Z,1.10
2023-11-05T00:17:32.898Z,1.30
2023-11-05T00:18:33.143Z,1.20
2023-11-05T00:19:33.542Z,1.30
2023-11-05T00:20:33.713Z,1.40
2023-11-05T00:21:33.929Z,1.30
2023-11-05T00:22:34.343Z,1.40
2023-11-05T00:23:34.477Z,1.20
2023-11-05T00:24:34.800Z,1.60
2023-11-05T00:25:35.097Z,1.10
2023-11-05T00:26:35.394Z,1.50
2023-11-05T00:27:35.726Z,1.60
2023-11-05T00:28:36.020Z,1.50
2023-11-05T00:29:36.406Z,1.30
2023-11-05T00:30:36.713Z,1.50
2023-11-05T00:31:36.964Z,1.20
2023-11-05T00:32:37.418Z,1.40
2023-11-05T00:33:37.619Z,1.60
2023-11-05T00:34:37.971Z,1.50
2023-11-05T00:35:38.088Z,1.10
2023-11-05T00:36:38.371Z,1.70
2023-11-05T00:37:38.763Z,1.30
2023-11-05T00:38:38.944Z,1.20
2023-11-05T00:39:39.247Z,1.60
2023-11-05T00:40:39.607Z,1.20
2023-11-05T00:41:39.810Z,1.40
2023-11-05T00:42:40.025Z,1.60
2023-11-05T00:43:40.325Z,1.10
2023-11-05T00:44:40.627Z,1.40
2023-11-05T00:45:40.972Z,1.40
2023-11-05T00:46:41.155Z,1.80
2023-11-05T00:47:41.508Z,1.30
2023-11-05T00:48:41.808Z,1.30
2023-11-05T00:49:42.639Z,1.10
2023-11-05T00:50:42.359Z,1.30
2023-11-05T00:51:42.756Z,1.40
2023-11-05T00:52:43.062Z,1.10
2023-11-05T00:53:43.185Z,1.40
2023-11-05T00:54:43.581Z,1.80
2023-11-05T00:55:43.661Z,1.40
2023-11-05T00:56:44.232Z,1.40
2023-11-05T00:57:44.318Z,1.40
2023-11-05T00:58:44.688Z,1.30
2023-11-05T00:59:44.986Z,1.30
2023-11-05T01:00:45.260Z,1.60
2023-11-05T01:01:45.600Z,1.40
2023-11-05T01:02:45.961Z,1.30
2023-11-05T01:03:46.264Z,1.40
2023-11-05T01:04:46.576Z,1.40
2023-11-05T01:05:46.876Z,1.50
2023-11-05T01:06:47.044Z,1.50
2023-11-05T01:07:47.363Z,1.50
2023-11-05T01:08:47.661Z,1.30
2023-11-05T01:09:47.988Z,1.60
2023-11-05T01:10:48.324Z,1.30
2023-11-05T01:11:48.753Z,1.30
2023-11-05T01:12:49.031Z,1.90
2023-11-05T01:13:49.182Z,1.50
2023-11-05T01:14:49.542Z,1.80
2023-11-05T01:15:49.740Z,1.40
2023-11-05T01:16:50.090Z,1.30
2023-11-05T01:17:50.424Z,1.40
2023-11-05T01:18:51.406Z,1.50
2023-11-05T01:19:51.031Z,1.30
2023-11-05T01:20:51.371Z,1.30
2023-11-05T01:21:51.729Z,1.30
2023-11-05T01:22:52.042Z,1.30
2023-11-05T01:23:52.261Z,1.50
2023-11-05T01:24:52.533Z,1.60
2023-11-05T01:25:52.800Z,1.60
2023-11-05T01:26:53.024Z,1.60
2023-11-05T01:27:53.366Z,1.60
2023-11-05T01:28:53.804Z,1.60
2023-11-05T01:29:53.909Z,1.50
2023-11-05T01:30:54.210Z,1.20
2023-11-05T01:31:54.413Z,1.40
2023-11-05T01:32:54.716Z,1.40
2023-11-05T01:33:55.006Z,1.30
2023-11-05T01:34:55.154Z,1.30
2023-11-05T01:35:55.536Z,1.30
2023-11-05T01:36:55.733Z,1.30
2023-11-05T01:37:56.329Z,1.30
2023-11-05T01:38:56.474Z,1.40
2023-11-05T01:39:56.640Z,1.20
2023-11-05T01:40:57.092Z,1.20
2023-11-05T01:41:57.287Z,1.20
2023-11-05T01:42:57.554Z,1.30
2023-11-05T01:43:57.868Z,1.60
2023-11-05T01:44:58.015Z,1.30
2023-11-05T01:45:58.346Z,1.30
2023-11-05T01:46:58.691Z,1.30
2023-11-05T01:47:59.034Z,1.60
2023-11-05T01:48:59.337Z,0.90
2023-11-05T01:49:59.483Z,1.30
2023-11-05T01:50:59.837Z,1.20
2023-11-05T01:52:00.287Z,1.10
2023-11-05T01:53:00.493Z,1.10
2023-11-05T01:54:04.797Z,1.30
2023-11-05T01:55:01.045Z,1.10
2023-11-05T01:56:01.315Z,1.50
2023-11-05T01:57:01.620Z,1.30
2023-11-05T01:58:01.914Z,1.10
2023-11-05T01:59:02.201Z,1.10
2023-11-05T02:00:02.510Z,1.20
2023-11-05T02:01:02.884Z,0.90
2023-11-05T02:02:03.030Z,1.20
2023-11-05T02:03:03.427Z,1.30
2023-11-05T02:04:03.633Z,1.10
2023-11-05T02:05:04.018Z,1.40
2023-11-05T02:06:04.168Z,1.30
2023-11-05T02:07:04.548Z,1.60
2023-11-05T02:08:04.872Z,1.20
2023-11-05T02:09:05.056Z,1.10
2023-11-05T02:10:05.371Z,1.50
2023-11-05T02:11:05.681Z,1.40
2023-11-05T02:12:06.047Z,1.20
2023-11-05T02:13:06.291Z,1.30
2023-11-05T02:14:06.583Z,1.00
2023-11-05T02:15:06.908Z,1.30
2023-11-05T02:16:07.257Z,1.00
2023-11-05T02:17:07.552Z,1.20
2023-11-05T02:18:07.922Z,1.10
2023-11-05T02:19:08.076Z,1.00
2023-11-05T02:20:08.427Z,1.10
2023-11-05T02:21:08.679Z,1.40
2023-11-05T02:22:08.834Z,1.20
2023-11-05T02:23:10.872Z,1.20
2023-11-05T02:24:09.386Z,1.20
2023-11-05T02:25:09.775Z,1.10
2023-11-05T02:26:09.940Z,1.20
2023-11-05T02:27:10.246Z,1.00
2023-11-05T02:28:10.608Z,1.00
2023-11-05T02:29:10.773Z,1.10
2023-11-05T02:30:11.121Z,0.90
2023-11-05T02:31:11.472Z,1.20
2023-11-05T02:32:11.746Z,0.90
2023-11-05T02:33:12.048Z,1.00
2023-11-05T02:34:12.398Z,1.10
2023-11-05T02:35:12.613Z,1.20
2023-11-05T02:36:12.983Z,1.30
2023-11-05T02:37:13.316Z,1.30
2023-11-05T02:38:13.593Z,0.90
2023-11-05T02:39:13.909Z,1.00
2023-11-05T02:40:14.284Z,0.90
2023-11-05T02:41:14.463Z,0.90
2023-11-05T02:42:14.758Z,0.90
2023-11-05T02:43:15.094Z,0.90
2023-11-05T02:44:15.399Z,1.00
2023-11-05T02:45:15.751Z,0.70
2023-11-05T02:46:15.971Z,0.90
2023-11-05T02:47:16.262Z,1.10
2023-11-05T02:48:16.719Z,1.00
2023-11-05T02:49:16.931Z,0.80
2023-11-05T02:50:17.162Z,0.80
2023-11-05T02:51:17.485Z,1.10
2023-11-05T02:52:17.850Z,0.90
2023-11-05T02:53:18.120Z,1.00
2023-11-05T02:54:18.446Z,0.90
2023-11-05T02:55:18.760Z,1.60
2023-11-05T02:56:19.048Z,1.00
2023-11-05T02:57:19.364Z,1.10
2023-11-05T02:58:19.758Z,1.20
2023-11-05T02:59:19.904Z,0.70
2023-11-05T03:00:20.234Z,0.90
2023-11-05T03:01:20.629Z,1.10
2023-11-05T03:02:20.903Z,0.90
2023-11-05T03:03:21.311Z,1.10
2023-11-05T03:04:21.824Z,0.80
2023-11-05T03:05:21.804Z,0.90
2023-11-05T03:06:22.089Z,1.10
2023-11-05T03:07:22.460Z,1.10
2023-11-05T03:08:22.680Z,0.90
2023-11-05T03:09:22.874Z,0.80
2023-11-05T03:10:23.190Z,1.00
2023-11-05T03:11:23.541Z,0.80
2023-11-05T03:12:23.861Z,0.60
2023-11-05T03:13:24.278Z,0.70
2023-11-05T03:14:24.427Z,1.00
2023-11-05T03:15:24.792Z,0.80
2023-11-05T03:16:25.037Z,0.90
2023-11-05T03:17:25.430Z,0.80
2023-11-05T03:18:25.691Z,0.90
2023-11-05T03:19:25.991Z,0.60
2023-11-05T03:20:26.199Z,1.00
2023-11-05T03:21:26.700Z,0.90
2023-11-05T03:22:26.962Z,0.80
2023-11-05T03:23:27.123Z,0.80
2023-11-05T03:24:27.410Z,0.80
2023-11-05T03:25:27.850Z,1.00
2023-11-05T03:26:27.873Z,0.80
2023-11-05T03:27:28.227Z,1.20
2023-11-05T03:28:28.498Z,1.00
2023-11-05T03:29:28.705Z,0.90
2023-11-05T03:30:29.070Z,0.70
2023-11-05T03:31:29.283Z,1.00
2023-11-05T03:32:29.635Z,0.70
2023-11-05T03:33:30.034Z,1.10
2023-11-05T03:34:30.309Z,1.00
2023-11-05T03:35:30.446Z,0.90
2023-11-05T03:36:30.828Z,1.00
2023-11-05T03:37:31.026Z,1.00
2023-11-05T03:38:31.372Z,0.70
2023-11-05T03:39:31.552Z,0.90
2023-11-05T03:40:31.944Z,0.90
2023-11-05T03:41:32.125Z,1.00
2023-11-05T03:42:32.438Z,1.00
2023-11-05T03:43:32.765Z,0.70
2023-11-05T03:44:33.151Z,0.90
2023-11-05T03:45:33.453Z,0.60
2023-11-05T03:46:33.706Z,0.70
2023-11-05T03:47:34.979Z,0.90
2023-11-05T03:48:34.414Z,1.00
2023-11-05T03:49:34.601Z,0.70
2023-11-05T03:50:34.983Z,0.80
2023-11-05T03:51:35.131Z,0.90
2023-11-05T03:52:35.510Z,0.90
2023-11-05T03:53:35.717Z,0.80
2023-11-05T03:54:36.057Z,0.70
2023-11-05T03:55:36.485Z,1.10
2023-11-05T03:56:36.681Z,0.90
2023-11-05T03:57:37.002Z,0.70
2023-11-05T03:58:37.327Z,1.00
2023-11-05T03:59:37.707Z,1.10
2023-11-05T04:00:37.971Z,0.70
2023-11-05T04:01:38.230Z,0.80
2023-11-05T04:02:38.529Z,0.90
2023-11-05T04:03:38.808Z,1.00
2023-11-05T04:04:39.021Z,0.70
2023-11-05T04:05:39.253Z,0.90
2023-11-05T04:06:39.487Z,0.80
2023-11-05T04:07:39.801Z,1.00
2023-11-05T04:08:40.155Z,0.80
2023-11-05T04:09:40.470Z,0.80
2023-11-05T04:10:40.875Z,0.80
2023-11-05T04:11:41.077Z,0.80
2023-11-05T04:12:41.428Z,0.70
2023-11-05T04:13:41.764Z,0.90
2023-11-05T04:14:42.073Z,0.80
2023-11-05T04:15:42.394Z,0.60
2023-11-05T04:16:42.806Z,0.70
2023-11-05T04:17:43.048Z,0.60
2023-11-05T04:18:43.336Z,0.60
2023-11-05T04:19:43.568Z,0.90
2023-11-05T04:20:43.871Z,1.00
2023-11-05T04:21:44.179Z,0.60
2023-11-05T04:22:44.551Z,0.60
2023-11-05T04:23:44.879Z,0.60
2023-11-05T04:24:45.069Z,0.80
2023-11-05T04:25:45.450Z,0.70
2023-11-05T04:26:45.645Z,0.40
2023-11-05T04:27:46.068Z,0.60
2023-11-05T04:28:46.254Z,0.70
2023-11-05T04:29:46.559Z,0.70
2023-11-05T04:30:46.892Z,0.60
2023-11-05T04:31:47.217Z,0.50
2023-11-05T04:32:47.546Z,0.50
2023-11-05T04:33:47.925Z,0.40
2023-11-05T04:34:48.140Z,0.70
2023-11-05T04:35:48.475Z,0.70
2023-11-05T04:36:48.773Z,0.70
2023-11-05T04:37:49.097Z,0.50
2023-11-05T04:38:49.414Z,0.80
2023-11-05T04:39:49.723Z,0.70
2023-11-05T04:40:50.065Z,0.50
2023-11-05T04:41:50.328Z,0.80
2023-11-05T04:42:50.554Z,0.60
2023-11-05T04:43:50.759Z,0.70
2023-11-05T04:44:51.084Z,0.60
2023-11-05T04:45:51.421Z,0.70
2023-11-05T04:46:51.799Z,0.70
2023-11-05T04:47:52.169Z,0.40
2023-11-05T04:48:52.382Z,0.40
2023-11-05T04:49:52.681Z,0.60
2023-11-05T04:50:53.003Z,0.50
2023-11-05T04:51:53.367Z,0.60
2023-11-05T04:52:53.694Z,0.60
2023-11-05T04:53:53.982Z,0.70
2023-11-05T04:54:54.339Z,0.50
2023-11-05T04:55:54.583Z,0.40
2023-11-05T04:56:54.815Z,0.60
2023-11-05T04:57:55.035Z,0.50
2023-11-05T04:58:55.247Z,0.60
2023-11-05T04:59:55.588Z,0.60
2023-11-05T05:00:55.944Z,0.70
2023-11-05T05:01:56.257Z,0.50
2023-11-05T05:02:56.664Z,0.30
2023-11-05T05:03:56.969Z,0.40
2023-11-05T05:04:57.298Z,0.50
2023-11-05T05:05:57.608Z,0.50
2023-11-05T05:06:57.764Z,0.40
2023-11-05T05:08:01.022Z,0.40
2023-11-05T05:08:58.409Z,0.50
2023-11-05T05:09:58.717Z,0.50
2023-11-05T05:10:59.115Z,0.60
2023-11-05T05:11:59.350Z,0.30
2023-11-05T05:12:59.693Z,0.30
2023-11-05T05:13:59.878Z,0.40
2023-11-05T05:15:00.193Z,0.40
2023-11-05T05:16:00.544Z,0.50
2023-11-05T05:17:00.808Z,0.40
2023-11-05T05:18:01.484Z,0.40
2023-11-05T05:19:01.317Z,0.50
2023-11-05T05:20:01.578Z,0.40
2023-11-05T05:21:01.841Z,0.20
2023-11-05T05:22:02.401Z,0.30
2023-11-05T05:23:02.500Z,0.20
2023-11-05T05:24:02.852Z,0.30
2023-11-05T05:25:03.055Z,0.30
2023-11-05T05:26:03.269Z,0.60
2023-11-05T05:27:03.543Z,0.40
2023-11-05T05:28:03.846Z,0.60
2023-11-05T05:29:04.190Z,0.40
2023-11-05T05:30:04.615Z,0.30
2023-11-05T05:31:04.980Z,0.30
2023-11-05T05:32:05.120Z,0.30
2023-11-05T05:33:05.526Z,0.10
2023-11-05T05:34:05.737Z,0.30
2023-11-05T05:35:06.109Z,0.40
2023-11-05T05:36:06.367Z,0.30
2023-11-05T05:37:06.713Z,0.30
2023-11-05T05:38:06.974Z,0.30
2023-11-05T05:39:07.238Z,0.30
2023-11-05T05:40:07.526Z,0.50
2023-11-05T05:41:07.735Z,0.40
2023-11-05T05:42:07.961Z,0.30
2023-11-05T05:43:08.314Z,0.20
2023-11-05T05:44:08.688Z,0.30
2023-11-05T05:45:08.891Z,0.30
2023-11-05T05:46:09.208Z,0.30
2023-11-05T05:47:09.557Z,0.40
2023-11-05T05:48:09.851Z,0.40
2023-11-05T05:49:10.046Z,0.60
2023-11-05T05:50:10.406Z,0.20
2023-11-05T05:51:10.579Z,0.40
2023-11-05T05:52:10.964Z,0.30
2023-11-05T05:53:11.239Z,0.50
2023-11-05T05:54:11.562Z,0.30
2023-11-05T05:55:11.917Z,0.20
2023-11-05T05:56:12.232Z,0.60
2023-11-05T05:57:12.587Z,0.30
2023-11-05T05:58:12.758Z,0.50
2023-11-05T05:59:13.137Z,0.50
2023-11-05T06:00:13.467Z,0.30
2023-11-05T06:01:13.894Z,0.30
2023-11-05T06:02:14.146Z,0.30
2023-11-05T06:03:14.369Z,0.30
2023-11-05T06:04:14.731Z,0.30
2023-11-05T06:05:15.020Z,0.50
2023-11-05T06:06:15.379Z,0.30
2023-11-05T06:07:15.698Z,0.30
2023-11-05T06:08:16.003Z,0.40
2023-11-05T06:09:16.347Z,0.20
2023-11-05T06:10:16.710Z,0.40
2023-11-05T06:11:17.021Z,0.30
2023-11-05T06:12:17.361Z,0.40
2023-11-05T06:13:17.712Z,0.30
2023-11-05T06:14:22.309Z,0.20
2023-11-05T06:15:19.298Z,0.30
2023-11-05T06:16:18.622Z,0.60
2023-11-05T06:17:18.797Z,0.30
2023-11-05T06:18:19.197Z,0.50
2023-11-05T06:19:19.417Z,0.40
2023-11-05T06:20:19.707Z,0.30
2023-11-05T06:21:20.014Z,0.40
2023-11-05T06:22:20.355Z,0.40
2023-11-05T06:23:20.654Z,0.30
2023-11-05T06:24:20.960Z,0.30
2023-11-05T06:25:21.413Z,0.40
2023-11-05T06:26:21.615Z,0.40
2023-11-05T06:27:21.937Z,0.50
2023-11-05T06:28:22.403Z,0.20
2023-11-05T06:29:22.564Z,0.20
2023-11-05T06:30:22.914Z,0.50
2023-11-05T06:31:23.290Z,0.20
2023-11-05T06:32:23.616Z,0.30
2023-11-05T06:33:23.903Z,0.30
2023-11-05T06:34:24.204Z,0.50
2023-11-05T06:35:24.442Z,0.20
2023-11-05T06:36:24.671Z,0.40
2023-11-05T06:37:24.971Z,0.50
2023-11-05T06:38:25.257Z,0.50
2023-11-05T06:39:26.699Z,0.30
2023-11-05T06:40:25.929Z,0.60
2023-11-05T06:41:26.087Z,0.30
2023-11-05T06:42:26.479Z,0.30
2023-11-05T06:43:26.678Z,0.40
2023-11-05T06:44:27.009Z,0.40
2023-11-05T06:45:27.359Z,0.40
2023-11-05T06:46:27.676Z,0.20
2023-11-05T06:47:27.882Z,0.50
2023-11-05T06:48:28.295Z,0.20
2023-11-05T06:49:28.613Z,0.30
2023-11-05T06:50:28.885Z,0.40
2023-11-05T06:51:29.131Z,0.30
2023-11-05T06:52:30.183Z,0.20
2023-11-05T06:53:29.652Z,0.30
2023-11-05T06:54:30.011Z,0.50
2023-11-05T06:55:30.320Z,0.30
2023-11-05T06:56:30.605Z,0.30
2023-11-05T06:57:30.974Z,0.20
2023-11-05T06:58:31.389Z,0.40
2023-11-05T06:59:31.591Z,0.20
2023-11-05T07:00:31.799Z,0.30
2023-11-05T07:01:32.170Z,0.30
2023-11-05T07:02:32.404Z,0.40
2023-11-05T07:03:32.664Z,0.40
2023-11-05T07:04:33.217Z,0.20
2023-11-05T07:05:33.188Z,0.10
2023-11-05T07:06:33.580Z,0.30
2023-11-05T07:07:33.916Z,0.20
2023-11-05T07:08:34.138Z,0.30
2023-11-05T07:09:34.391Z,0.30
2023-11-05T07:10:34.678Z,0.30
2023-11-05T07:11:34.929Z,0.30
2023-11-05T07:12:35.159Z,0.40
2023-11-05T07:13:35.454Z,0.30
2023-11-05T07:14:35.687Z,0.10
2023-11-05T07:15:35.945Z,0.30
2023-11-05T07:16:36.292Z,0.30
2023-11-05T07:17:36.567Z,0.20
2023-11-05T07:18:36.838Z,0.20
2023-11-05T07:19:37.112Z,0.30
2023-11-05T07:20:37.372Z,0.30
2023-11-05T07:21:37.640Z,0.30
2023-11-05T07:22:39.492Z,0.40
2023-11-05T07:23:38.144Z,0.40
2023-11-05T07:24:38.486Z,0.30
2023-11-05T07:25:38.864Z,0.30
2023-11-05T07:26:39.177Z,0.40
2023-11-05T07:27:39.449Z,0.30
2023-11-05T07:28:39.815Z,0.30
2023-11-05T07:29:39.984Z,0.40
2023-11-05T07:30:40.340Z,0.40
2023-11-05T07:31:40.809Z,0.50
2023-11-05T07:32:41.090Z,0.20
2023-11-05T07:33:41.401Z,0.40
2023-11-05T07:34:41.794Z,0.30
2023-11-05T07:35:41.901Z,0.20
2023-11-05T07:36:42.146Z,0.30
2023-11-05T07:37:42.412Z,0.20
2023-11-05T07:38:42.639Z,0.30
2023-11-05T07:39:42.895Z,0.20
2023-11-05T07:40:43.164Z,0.20
2023-11-05T07:41:43.378Z,0.30
2023-11-05T07:42:43.700Z,0.30
2023-11-05T07:43:43.961Z,0.40
2023-11-05T07:44:44.197Z,0.50
2023-11-05T07:45:44.463Z,0.30
2023-11-05T07:46:44.705Z,0.50
2023-11-05T07:47:45.157Z,0.30
2023-11-05T07:48:45.330Z,0.30
2023-11-05T07:49:45.674Z,0.20
2023-11-05T07:50:45.958Z,0.30
2023-11-05T07:51:46.257Z,0.40
2023-11-05T07:52:46.586Z,0.20
2023-11-05T07:53:46.785Z,0.20
2023-11-05T07:54:47.308Z,0.30
2023-11-05T07:55:47.506Z,0.20
2023-11-05T07:56:47.706Z,0.20
2023-11-05T07:57:47.946Z,0.20
2023-11-05T07:58:48.210Z,0.20
2023-11-05T07:59:48.416Z,0.30
2023-11-05T08:00:48.711Z,0.30
2023-11-05T08:01:48.964Z,0.40
2023-11-05T08:02:49.300Z,0.30
2023-11-05T08:03:49.568Z,0.20
2023-11-05T08:04:49.909Z,0.30
2023-11-05T08:05:50.171Z,0.10
2023-11-05T08:06:50.439Z,0.30
2023-11-05T08:07:50.755Z,0.20
2023-11-05T08:08:51.022Z,0.40
2023-11-05T08:09:51.241Z,0.30
2023-11-05T08:10:51.517Z,0.30
2023-11-05T08:11:51.831Z,0.30
2023-11-05T08:12:52.068Z,0.30
2023-11-05T08:13:52.721Z,0.50
2023-11-05T08:14:52.639Z,0.20
2023-11-05T08:15:52.965Z,0.30
2023-11-05T08:16:53.224Z,0.40
2023-11-05T08:17:53.600Z,0.50
2023-11-05T08:18:53.802Z,0.30
2023-11-05T08:19:54.111Z,0.50
2023-11-05T08:20:54.348Z,0.30
2023-11-05T08:21:54.605Z,0.30
2023-11-05T08:22:54.860Z,0.30
2023-11-05T08:23:55.095Z,0.20
2023-11-05T08:24:55.333Z,0.20
2023-11-05T08:25:55.607Z,0.30
2023-11-05T08:26:56.015Z,0.30
2023-11-05T08:27:56.159Z,0.30
2023-11-05T08:28:56.478Z,0.20
2023-11-05T08:29:56.702Z,0.30
2023-11-05T08:30:57.035Z,0.40
2023-11-05T08:31:57.381Z,0.30
2023-11-05T08:32:57.689Z,0.30
2023-11-05T08:33:58.031Z,0.30
2023-11-05T08:34:58.390Z,0.30
2023-11-05T08:35:58.604Z,0.30
2023-11-05T08:36:59.482Z,0.30
2023-11-05T08:37:59.134Z,0.30
2023-11-05T08:38:59.387Z,0.20
2023-11-05T08:39:59.611Z,0.30
2023-11-05T08:40:59.969Z,0.30
2023-11-05T08:42:00.273Z,0.30
2023-11-05T08:43:00.609Z,0.20
2023-11-05T08:44:00.868Z,0.20
2023-11-05T08:45:01.144Z,0.30
2023-11-05T08:46:01.510Z,0.20
2023-11-05T08:47:01.859Z,0.30
2023-11-05T08:48:01.989Z,0.30
2023-11-05T08:49:02.361Z,0.40
2023-11-05T08:50:02.763Z,0.30
2023-11-05T08:51:02.839Z,0.40
2023-11-05T08:52:03.084Z,0.20
2023-11-05T08:53:03.345Z,0.20
2023-11-05T08:54:03.615Z,0.30
2023-11-05T08:55:03.829Z,0.40
2023-11-05T08:56:04.711Z,0.40
2023-11-05T08:57:04.534Z,0.30
2023-11-05T08:58:04.925Z,0.40
2023-11-05T08:59:05.181Z,0.20
2023-11-05T09:00:05.442Z,0.40
2023-11-05T09:01:05.677Z,0.40
2023-11-05T09:02:05.898Z,0.20
2023-11-05T09:03:06.370Z,0.20
2023-11-05T09:04:06.724Z,0.20
2023-11-05T09:05:07.045Z,0.40
2023-11-05T09:06:07.185Z,0.20
2023-11-05T09:07:07.414Z,0.40
2023-11-05T09:08:07.762Z,0.40
2023-11-05T09:09:08.111Z,0.20
2023-11-05T09:10:08.527Z,0.20
2023-11-05T09:11:08.758Z,0.30
2023-11-05T09:12:08.979Z,0.20
2023-11-05T09:13:09.333Z,0.50
2023-11-05T09:14:09.623Z,0.20
2023-11-05T09:15:09.860Z,0.30
2023-11-05T09:16:10.062Z,0.30
2023-11-05T09:17:10.444Z,0.20
2023-11-05T09:18:10.716Z,0.30
2023-11-05T09:19:11.016Z,0.30
2023-11-05T09:20:11.273Z,0.30
2023-11-05T09:21:11.467Z,0.40
2023-11-05T09:22:11.890Z,0.20
2023-11-05T09:23:12.145Z,0.30
2023-11-05T09:24:12.397Z,0.30
2023-11-05T09:25:12.657Z,0.40
2023-11-05T09:26:12.897Z,0.30
2023-11-05T09:27:13.258Z,0.20
2023-11-05T09:28:13.530Z,0.20
2023-11-05T09:29:13.801Z,0.20
2023-11-05T09:30:14.297Z,0.30
2023-11-05T09:31:14.586Z,0.20
2023-11-05T09:32:14.696Z,0.30
2023-11-05T09:33:15.014Z,0.70
2023-11-05T09:34:15.308Z,0.30
2023-11-05T09:35:15.913Z,0.40
2023-11-05T09:36:15.821Z,0.20
2023-11-05T09:37:16.172Z,0.50
2023-11-05T09:38:16.554Z,0.40
2023-11-05T09:39:16.796Z,0.20
2023-11-05T09:40:17.559Z,0.30
2023-11-05T09:41:17.330Z,0.10
2023-11-05T09:42:17.634Z,0.20
2023-11-05T09:43:17.981Z,0.30
2023-11-05T09:44:18.334Z,0.40
2023-11-05T09:45:18.473Z,0.30
2023-11-05T09:46:18.930Z,0.30
2023-11-05T09:47:19.070Z,0.30
2023-11-05T09:48:19.492Z,0.30
2023-11-05T09:49:19.732Z,0.20
2023-11-05T09:50:19.994Z,0.40
2023-11-05T09:51:20.398Z,0.20
2023-11-05T09:52:20.546Z,0.20
2023-11-05T09:53:20.746Z,0.40
2023-11-05T09:54:20.986Z,0.50
2023-11-05T09:55:21.337Z,0.30
2023-11-05T09:56:21.619Z,0.30
2023-11-05T09:57:21.906Z,0.30
2023-11-05T09:58:22.186Z,0.50
2023-11-05T09:59:23.019Z,0.30
2023-11-05T10:00:22.949Z,0.50
2023-11-05T10:01:23.087Z,0.30
2023-11-05T10:02:23.384Z,0.40
2023-11-05T10:03:23.701Z,0.40
2023-11-05T10:04:24.016Z,0.40
2023-11-05T10:05:24.244Z,0.30
2023-11-05T10:06:24.520Z,0.40
2023-11-05T10:07:25.111Z,0.20
2023-11-05T10:08:25.170Z,0.50
2023-11-05T10:09:25.260Z,0.30
2023-11-05T10:10:25.590Z,0.30
2023-11-05T10:11:25.848Z,0.50
2023-11-05T10:12:28.444Z,0.40
2023-11-05T10:13:26.445Z,0.30
2023-11-05T10:14:26.627Z,0.30
2023-11-05T10:15:26.900Z,0.30
2023-11-05T10:16:27.141Z,0.30
2023-11-05T10:17:27.481Z,0.30
2023-11-05T10:18:27.758Z,0.50
2023-11-05T10:19:28.010Z,0.20
2023-11-05T10:20:28.249Z,0.30
2023-11-05T10:21:28.480Z,0.30
2023-11-05T10:22:28.778Z,0.50
2023-11-05T10:23:28.953Z,0.30
2023-11-05T10:24:29.349Z,0.40
2023-11-05T10:25:29.678Z,0.30
2023-11-05T10:26:29.946Z,0.30
2023-11-05T10:27:30.164Z,0.20
2023-11-05T10:28:30.464Z,0.20
2023-11-05T10:29:30.706Z,0.30
2023-11-05T10:30:30.976Z,0.30
2023-11-05T10:31:31.336Z,0.30
2023-11-05T10:32:31.569Z,0.20
2023-11-05T10:33:31.889Z,0.50
2023-11-05T10:34:32.185Z,0.30
2023-11-05T10:35:32.429Z,0.30
2023-11-05T10:36:32.690Z,0.20
2023-11-05T10:37:32.939Z,0.30
2023-11-05T10:38:33.199Z,0.40
2023-11-05T10:39:33.506Z,0.30
2023-11-05T10:40:33.907Z,0.20
2023-11-05T10:41:34.008Z,0.30
2023-11-05T10:42:34.367Z,0.30
2023-11-05T10:43:34.504Z,0.20
2023-11-05T10:44:35.206Z,0.20
2023-11-05T10:45:35.015Z,0.20
2023-11-05T10:46:35.300Z,0.40
2023-11-05T10:47:35.570Z,0.40
2023-11-05T10:48:35.845Z,0.20
2023-11-05T10:49:36.125Z,0.10
2023-11-05T10:50:36.372Z,0.40
2023-11-05T10:51:36.601Z,0.30
2023-11-05T10:52:37.100Z,0.40
2023-11-05T10:53:37.247Z,0.10
2023-11-05T10:54:37.457Z,0.20
2023-11-05T10:55:38.019Z,0.30
2023-11-05T10:56:38.318Z,0.40
2023-11-05T10:57:38.432Z,0.20
2023-11-05T10:58:38.734Z,0.30
2023-11-05T10:59:38.943Z,0.20
2023-11-05T11:00:39.210Z,0.50
2023-11-05T11:01:39.538Z,0.30
2023-11-05T11:02:50.978Z,0.30
2023-11-05T11:03:41.270Z,0.40
2023-11-05T11:04:40.503Z,0.20
2023-11-05T11:05:40.784Z,0.40
2023-11-05T11:06:40.889Z,0.20
2023-11-05T11:07:41.205Z,0.20
2023-11-05T11:08:41.459Z,0.20
2023-11-05T11:09:41.749Z,0.10
2023-11-05T11:10:42.141Z,0.40
2023-11-05T11:11:42.377Z,0.40
2023-11-05T11:12:42.499Z,0.30
2023-11-05T11:13:42.850Z,0.50
2023-11-05T11:14:43.052Z,0.30
2023-11-05T11:15:43.340Z,0.20
2023-11-05T11:16:43.705Z,0.20
2023-11-05T11:17:43.918Z,0.10
2023-11-05T11:18:44.190Z,0.20
2023-11-05T11:19:44.435Z,0.50
2023-11-05T11:20:44.716Z,0.40
2023-11-05T11:21:45.107Z,0.30
2023-11-05T11:22:45.360Z,0.30
2023-11-05T11:23:45.579Z,0.80
2023-11-05T11:24:45.843Z,0.70
2023-11-05T11:25:46.131Z,0.40
2023-11-05T11:26:46.396Z,0.20
2023-11-05T11:27:46.722Z,0.30
2023-11-05T11:28:47.050Z,0.30
2023-11-05T11:29:47.337Z,0.20
2023-11-05T11:30:47.595Z,0.20
2023-11-05T11:31:47.906Z,0.40
2023-11-05T11:32:48.402Z,0.30
2023-11-05T11:33:48.470Z,0.30
2023-11-05T11:34:48.793Z,0.40
2023-11-05T11:35:49.037Z,0.20
2023-11-05T11:36:49.311Z,0.30
2023-11-05T11:37:49.676Z,0.20
2023-11-05T11:38:49.787Z,0.20
2023-11-05T11:39:50.085Z,0.20
2023-11-05T11:40:50.366Z,0.30
2023-11-05T11:41:50.521Z,0.20
2023-11-05T11:42:50.747Z,0.30
2023-11-05T11:43:51.194Z,0.20
2023-11-05T11:44:51.490Z,0.20
2023-11-05T11:45:51.658Z,0.20
2023-11-05T11:46:52.002Z,0.30
2023-11-05T11:47:52.281Z,0.20
2023-11-05T11:48:52.814Z,0.10
2023-11-05T12:28:34.511Z,0.50
2023-11-05T12:29:34.551Z,0.50
2023-11-05T12:30:34.906Z,0.30
2023-11-05T12:31:35.314Z,0.20
2023-11-05T12:32:46.779Z,0.40
2023-11-05T12:34:52.290Z,0.20
2023-11-05T12:35:52.375Z,0.30
2023-11-05T12:36:52.763Z,0.20
2023-11-05T12:37:53.032Z,0.20
2023-11-05T12:38:57.206Z,0.20
2023-11-05T12:39:53.535Z,0.40
2023-11-05T12:40:53.824Z,0.20
2023-11-05T12:41:54.145Z,0.20
2023-11-05T12:42:54.580Z,0.30
2023-11-05T12:43:54.532Z,0.30
2023-11-05T12:44:54.877Z,0.20
2023-11-05T12:45:55.099Z,0.40
2023-11-05T12:46:55.348Z,0.20
2023-11-05T12:47:55.688Z,0.40
2023-11-05T12:48:55.915Z,0.30
2023-11-05T12:49:56.245Z,0.20
2023-11-05T12:50:56.494Z,0.40
2023-11-05T12:51:56.718Z,0.20
2023-11-05T12:52:57.114Z,0.20
2023-11-05T12:53:57.312Z,0.20
2023-11-05T12:54:57.708Z,0.30
2023-11-05T12:55:57.940Z,0.30
2023-11-05T12:56:58.199Z,0.30
2023-11-05T12:57:58.685Z,0.30
2023-11-05T12:58:59.261Z,0.20
2023-11-05T12:59:59.061Z,0.20
2023-11-05T13:00:59.307Z,0.20
2023-11-05T13:02:03.313Z,0.30
2023-11-05T13:03:01.128Z,0.30
2023-11-05T13:04:00.410Z,0.30
2023-11-05T13:05:00.647Z,0.30
2023-11-05T13:06:01.081Z,0.30
2023-11-05T13:07:01.038Z,0.20
2023-11-05T13:08:01.489Z,0.30
2023-11-05T13:09:01.720Z,0.40
2023-11-05T13:10:02.092Z,0.40
2023-11-05T13:11:02.364Z,0.30
2023-11-05T13:12:02.575Z,0.60
2023-11-05T13:13:02.884Z,0.20
2023-11-05T13:14:03.151Z,0.20
2023-11-05T13:15:03.402Z,0.20
2023-11-05T13:16:03.775Z,0.40
2023-11-05T13:17:03.975Z,0.30
2023-11-05T13:18:05.175Z,0.60
2023-11-05T13:19:04.959Z,0.10
2023-11-05T13:20:04.878Z,0.20
2023-11-05T13:21:06.475Z,0.30
2023-11-05T13:22:08.267Z,0.30
2023-11-05T13:23:06.063Z,0.40
2023-11-05T13:24:06.011Z,0.30
2023-11-05T13:25:06.294Z,0.40
2023-11-05T13:26:06.610Z,0.40
2023-11-05T13:27:06.822Z,0.20
2023-11-05T13:28:07.307Z,0.30
2023-11-05T13:29:07.397Z,0.40
2023-11-05T13:30:07.690Z,0.30
2023-11-05T13:31:08.032Z,0.30
2023-11-05T13:32:08.243Z,0.30
2023-11-05T13:33:08.779Z,0.30
2023-11-05T13:34:09.002Z,0.20
2023-11-05T13:35:09.296Z,0.30
2023-11-05T13:36:09.681Z,0.20
2023-11-05T13:37:09.945Z,0.50
2023-11-05T13:38:10.222Z,0.40
2023-11-05T13:39:10.507Z,0.30
2023-11-05T13:40:10.925Z,0.30
2023-11-05T13:41:11.093Z,0.20
2023-11-05T13:42:11.566Z,0.20
2023-11-05T13:43:11.529Z,0.30
2023-11-05T13:44:11.837Z,0.40
2023-11-05T13:45:12.129Z,0.30
2023-11-05T13:46:12.438Z,0.40
2023-11-05T13:47:12.691Z,0.30
2023-11-05T13:48:12.984Z,0.30
2023-11-05T13:49:15.358Z,0.30
2023-11-05T13:50:13.434Z,0.60
2023-11-05T13:51:13.733Z,0.30
2023-11-05T13:52:14.245Z,0.50
2023-11-05T13:53:14.366Z,0.40
2023-11-05T14:06:39.154Z,0.50
2023-11-05T14:07:39.075Z,0.40
2023-11-05T14:08:38.581Z,0.30
2023-11-05T14:09:38.897Z,0.30
2023-11-05T14:10:39.237Z,0.50
2023-11-05T14:11:40.439Z,0.50
2023-11-05T14:12:39.780Z,0.70
2023-11-05T14:13:40.048Z,0.60
2023-11-05T14:14:40.358Z,0.50